createdAt,value
2018-12-24T00:01:16.868Z,10.90
2018-12-24T00:06:15.044Z,8.23
2018-12-24T00:11:13.602Z,16.20
2018-12-24T00:16:03.081Z,8.20
2018-12-24T00:20:53.915Z,6.37
2018-12-24T00:25:44.958Z,7.40
2018-12-24T00:31:00.732Z,7.43
2018-12-24T00:35:53.353Z,6.90
2018-12-24T00:40:42.947Z,5.90
2018-12-24T00:45:33.603Z,11.83
2018-12-24T00:50:23.180Z,7.20
2018-12-24T00:55:12.578Z,6.90
2018-12-24T01:00:07.466Z,6.90
2018-12-24T01:04:57.647Z,8.73
2018-12-24T01:09:47.128Z,7.43
2018-12-24T01:14:39.501Z,8.47
2018-12-24T01:19:30.145Z,7.80
2018-12-24T01:24:20.091Z,5.80
2018-12-24T01:29:12.305Z,5.10
2018-12-24T01:34:02.035Z,6.40
2018-12-24T01:38:51.642Z,7.80
2018-12-24T01:43:43.619Z,7.70
2018-12-24T01:48:33.370Z,7.03
2018-12-24T01:53:27.568Z,6.07
2018-12-24T01:58:20.388Z,5.30
2018-12-24T02:03:10.585Z,4.90
2018-12-24T02:08:04.303Z,5.37
2018-12-24T02:12:57.671Z,4.43
2018-12-24T02:17:47.233Z,4.10
2018-12-24T02:23:05.072Z,3.70
2018-12-24T02:27:59.381Z,3.80
2018-12-24T02:32:50.575Z,3.90
2018-12-24T02:37:42.589Z,3.87
2018-12-24T02:42:35.048Z,3.50
2018-12-24T02:47:24.688Z,4.33
2018-12-24T02:52:13.669Z,7.40
2018-12-24T02:57:03.270Z,7.17
2018-12-24T03:01:52.970Z,6.67
2018-12-24T03:06:44.396Z,6.83
2018-12-24T03:11:35.660Z,6.10
2018-12-24T03:16:26.431Z,6.57
2018-12-24T03:21:16.674Z,6.40
2018-12-24T03:26:06.222Z,7.30
2018-12-24T03:30:56.193Z,14.37
2018-12-24T03:35:45.809Z,9.53
2018-12-24T03:40:35.531Z,7.73
2018-12-24T03:45:25.279Z,9.07
2018-12-24T03:50:16.072Z,8.03
2018-12-24T03:55:07.450Z,7.10
2018-12-24T03:59:58.197Z,7.37
2018-12-24T04:04:48.564Z,7.27
2018-12-24T04:09:37.914Z,7.17
2018-12-24T04:14:27.241Z,8.87
2018-12-24T04:19:18.027Z,10.40
2018-12-24T04:24:09.582Z,10.93
2018-12-24T04:28:59.446Z,10.93
2018-12-24T04:33:50.378Z,11.40
2018-12-24T04:38:40.358Z,11.53
2018-12-24T04:43:34.339Z,10.57
2018-12-24T04:48:24.368Z,9.13
2018-12-24T04:53:13.912Z,8.83
2018-12-24T04:58:09.479Z,8.10
2018-12-24T05:02:59.562Z,8.30
2018-12-24T05:07:49.699Z,9.40
2018-12-24T05:12:39.127Z,9.30
2018-12-24T05:17:30.444Z,14.60
2018-12-24T05:22:22.252Z,9.80
2018-12-24T05:27:14.315Z,13.73
2018-12-24T05:32:04.557Z,14.40
2018-12-24T05:36:54.686Z,22.47
2018-12-24T05:41:50.044Z,17.00
2018-12-24T05:46:40.726Z,15.73
2018-12-24T05:51:30.303Z,10.57
2018-12-24T05:56:19.936Z,18.97
2018-12-24T06:01:12.032Z,19.70
2018-12-24T06:06:03.295Z,15.67
2018-12-24T06:10:52.750Z,15.57
2018-12-24T06:15:49.059Z,18.73
2018-12-24T06:20:46.879Z,16.37
2018-12-24T06:25:36.783Z,11.67
2018-12-24T06:30:28.941Z,12.33
2018-12-24T06:35:22.894Z,14.93
2018-12-24T06:40:12.403Z,12.33
2018-12-24T06:45:02.020Z,14.30
2018-12-24T06:49:51.520Z,25.47
2018-12-24T06:54:46.567Z,14.20
2018-12-24T06:59:37.432Z,14.53
2018-12-24T07:04:29.654Z,15.37
2018-12-24T07:09:19.497Z,17.67
2018-12-24T07:14:15.364Z,17.73
2018-12-24T07:19:00.403Z,37.90
2018-12-24T07:23:50.530Z,41.00
2018-12-24T07:28:41.599Z,44.43
2018-12-24T07:33:37.036Z,48.83
2018-12-24T07:38:26.684Z,47.23
2018-12-24T07:43:17.851Z,48.73
2018-12-24T07:48:09.555Z,41.17
2018-12-24T07:53:07.515Z,31.37
2018-12-24T07:57:57.058Z,25.37
2018-12-24T08:02:46.793Z,23.40
2018-12-24T08:07:39.562Z,26.57
2018-12-24T08:12:30.093Z,35.53
2018-12-24T08:17:21.230Z,29.67
2018-12-24T08:22:12.344Z,25.07
2018-12-24T08:27:02.223Z,23.80
2018-12-24T08:31:52.031Z,29.73
2018-12-24T08:36:44.787Z,32.60
2018-12-24T08:41:39.698Z,25.33
2018-12-24T08:46:30.549Z,28.40
2018-12-24T08:51:19.886Z,11.60
2018-12-24T08:56:32.255Z,7.67
2018-12-24T09:01:26.155Z,11.83
2018-12-24T09:06:16.547Z,6.77
2018-12-24T09:11:06.162Z,6.93
2018-12-24T09:15:56.820Z,5.73
2018-12-24T09:20:52.573Z,5.97
2018-12-24T09:25:38.765Z,6.83
2018-12-24T09:30:28.213Z,7.97
2018-12-24T09:35:18.108Z,11.03
2018-12-24T09:40:14.339Z,10.77
2018-12-24T09:45:08.056Z,18.40
2018-12-24T09:49:58.439Z,10.43
2018-12-24T09:54:52.436Z,12.00
2018-12-24T09:59:56.767Z,8.23
2018-12-24T10:04:55.095Z,14.23
2018-12-24T10:09:48.042Z,12.23
2018-12-24T10:14:38.257Z,9.00
2018-12-24T10:19:41.558Z,6.93
2018-12-24T10:24:32.935Z,10.13
2018-12-24T10:29:22.698Z,7.70
2018-12-24T10:34:12.249Z,9.07
2018-12-24T10:39:02.003Z,8.60
2018-12-24T10:43:52.118Z,8.87
2018-12-24T10:48:42.507Z,8.97
2018-12-24T10:53:35.730Z,17.93
2018-12-24T10:58:26.817Z,16.73
2018-12-24T11:03:17.146Z,11.23
2018-12-24T11:08:09.958Z,9.57
2018-12-24T11:13:02.136Z,13.87
2018-12-24T11:17:52.766Z,7.33
2018-12-24T11:22:42.492Z,6.23
2018-12-24T11:27:32.454Z,5.30
2018-12-24T11:32:22.242Z,5.83
2018-12-24T11:37:12.468Z,10.73
2018-12-24T11:42:02.856Z,8.93
2018-12-24T11:46:53.600Z,5.60
2018-12-24T11:51:46.948Z,7.77
2018-12-24T11:56:37.146Z,6.00
2018-12-24T12:01:30.642Z,6.83
2018-12-24T12:06:20.219Z,5.53
2018-12-24T12:11:10.167Z,5.93
2018-12-24T12:15:59.955Z,7.00
2018-12-24T12:20:52.713Z,7.70
2018-12-24T12:25:43.057Z,6.97
2018-12-24T12:30:32.655Z,7.77
2018-12-24T12:35:24.071Z,6.37
2018-12-24T12:40:20.622Z,8.17
2018-12-24T12:45:13.899Z,5.13
2018-12-24T12:50:04.997Z,5.87
2018-12-24T12:54:56.707Z,5.53
2018-12-24T12:59:52.442Z,6.53
2018-12-24T13:04:45.379Z,5.20
2018-12-24T13:09:37.714Z,8.27
2018-12-24T13:20:25.015Z,7.70
2018-12-24T13:25:41.714Z,8.60
2018-12-24T13:30:59.734Z,7.47
2018-12-24T13:36:25.045Z,6.77
2018-12-24T13:41:52.002Z,8.57
2018-12-24T13:47:15.141Z,6.80
2018-12-24T13:52:38.400Z,6.73
2018-12-24T13:58:00.134Z,7.10
2018-12-24T14:03:24.896Z,8.60
2018-12-24T14:08:48.811Z,13.63
2018-12-24T14:14:12.014Z,9.57
2018-12-24T14:20:02.087Z,8.37
2018-12-24T14:24:54.399Z,8.00
2018-12-24T14:29:47.388Z,6.33
2018-12-24T14:34:37.149Z,6.83
2018-12-24T14:39:37.083Z,7.27
2018-12-24T14:44:27.888Z,7.40
2018-12-24T14:49:37.944Z,8.40
2018-12-24T14:54:35.294Z,9.70
2018-12-24T14:59:33.241Z,8.87
2018-12-24T15:04:24.266Z,13.30
2018-12-24T15:10:04.576Z,15.87
2018-12-24T15:15:29.392Z,17.90
2018-12-24T15:20:45.261Z,11.40
2018-12-24T15:25:51.284Z,13.03
2018-12-24T15:31:20.419Z,12.50
2018-12-24T15:36:47.409Z,16.90
2018-12-24T15:42:17.583Z,14.23
2018-12-24T15:47:32.097Z,15.33
2018-12-24T15:53:02.096Z,17.27
2018-12-24T15:58:19.123Z,16.37
2018-12-24T16:03:44.859Z,15.20
2018-12-24T16:09:01.575Z,13.47
2018-12-24T16:14:16.037Z,14.73
2018-12-24T16:19:26.804Z,13.83
2018-12-24T16:24:37.135Z,18.23
2018-12-24T16:29:51.254Z,12.07
2018-12-24T16:35:04.036Z,12.10
2018-12-24T16:45:23.718Z,14.43
2018-12-24T16:50:15.551Z,11.30
2018-12-24T16:55:07.327Z,9.10
2018-12-24T16:59:57.475Z,10.43
2018-12-24T17:04:47.471Z,8.67
2018-12-24T17:09:39.839Z,9.83
2018-12-24T17:14:30.554Z,12.40
2018-12-24T17:19:20.879Z,13.47
2018-12-24T17:24:18.266Z,37.17
2018-12-24T17:29:07.915Z,18.17
2018-12-24T17:33:57.224Z,7.63
2018-12-24T17:38:47.418Z,16.50
2018-12-24T17:43:37.522Z,7.93
2018-12-24T17:48:27.065Z,29.90
2018-12-24T17:53:18.154Z,33.67
2018-12-24T17:58:08.358Z,4.13
2018-12-24T18:02:58.336Z,2.43
2018-12-24T18:07:48.198Z,2.57
2018-12-24T18:12:39.875Z,2.40
2018-12-24T18:17:30.709Z,4.87
2018-12-24T18:22:21.076Z,2.70
2018-12-24T18:33:23.767Z,1.77
2018-12-24T18:38:13.589Z,2.10
2018-12-24T18:43:03.859Z,3.77
2018-12-24T18:47:53.301Z,2.20
2018-12-24T18:52:42.961Z,2.33
2018-12-24T18:57:32.463Z,2.30
2018-12-24T19:02:22.278Z,2.20
2018-12-24T19:07:14.628Z,1.93
2018-12-24T19:12:05.319Z,1.53
2018-12-24T19:16:55.760Z,5.93
2018-12-24T19:21:44.664Z,1.73
2018-12-24T19:26:36.879Z,1.43
2018-12-24T19:31:26.454Z,1.43
2018-12-24T19:36:15.931Z,1.53
2018-12-24T19:41:05.878Z,1.50
2018-12-24T19:46:14.303Z,1.27
2018-12-24T19:51:05.541Z,1.70
2018-12-24T20:02:37.740Z,1.27
2018-12-24T20:07:46.236Z,1.50
2018-12-24T20:12:37.730Z,0.80
2018-12-24T20:18:04.007Z,0.60
2018-12-24T20:30:25.963Z,1.17
2018-12-24T20:48:20.551Z,1.07
2018-12-24T20:53:55.089Z,1.20
2018-12-24T20:59:52.341Z,1.00
2018-12-24T21:05:22.554Z,1.70
2018-12-24T21:11:24.191Z,1.83
2018-12-24T21:17:09.082Z,1.50
2018-12-24T21:22:50.820Z,1.63
2018-12-24T21:28:13.640Z,2.60
2018-12-24T21:33:30.958Z,2.40
2018-12-24T21:38:43.628Z,2.83
2018-12-24T21:43:35.113Z,2.13
2018-12-24T21:48:24.968Z,3.00
2018-12-24T21:53:14.694Z,2.53
2018-12-24T21:58:04.219Z,3.00
2018-12-24T22:03:04.567Z,2.90
2018-12-24T22:07:55.084Z,2.53
2018-12-24T22:12:44.956Z,2.70
2018-12-24T22:17:40.287Z,3.20
2018-12-24T22:22:37.525Z,2.53
2018-12-24T22:27:27.590Z,2.13
2018-12-24T22:32:24.971Z,2.90
2018-12-24T22:37:20.890Z,3.47
2018-12-24T22:42:27.111Z,2.97
2018-12-24T22:47:24.442Z,4.60
2018-12-24T22:52:17.487Z,4.40
2018-12-24T22:57:26.317Z,4.20
2018-12-24T23:02:10.931Z,5.20
2018-12-24T23:07:01.520Z,4.90
2018-12-24T23:11:52.027Z,4.90
2018-12-24T23:16:43.142Z,6.13
2018-12-24T23:21:36.523Z,5.90
2018-12-24T23:26:27.708Z,6.90
2018-12-24T23:31:23.768Z,4.90
2018-12-24T23:36:42.071Z,7.63
2018-12-24T23:42:08.598Z,7.77
2018-12-24T23:47:05.328Z,7.37
2018-12-24T23:52:03.107Z,8.20
2018-12-24T23:56:59.369Z,7.97
